Time;durP1;ratioP1;P1;durP2;ratioP2;P2;SDS_P1;SDS_P2;PMS_P1;PMS_P2;Temp;Humidity;BMP_temperature;BMP_pressure;BME280_temperature;BME280_humidity;BME280_pressure;Samples;Min_cycle;Max_cycle;Signal;HPM_P1;HPM_P2
2023/05/05 00:00:14;;;;;;;18.57;8.57;;;;;;;13.37;58.63;100899.80;125098;1086;104340;-73
2023/05/05 00:03:03;;;;;;;18.67;8.40;;;;;;;13.33;58.71;100896.19;125026;1086;104925;-74
2023/05/05 00:05:31;;;;;;;19.90;8.73;;;;;;;13.30;60.19;100894.31;124854;1086;104395;-74
2023/05/05 00:08:19;;;;;;;19.33;8.80;;;;;;;13.28;59.95;100892.49;124972;1086;104231;-75
2023/05/05 00:10:49;;;;;;;18.70;8.70;;;;;;;13.24;60.30;100883.58;125014;1086;104231;-74
2023/05/05 00:13:19;;;;;;;20.10;8.20;;;;;;;13.19;60.03;100881.66;124666;1086;104302;-74
2023/05/05 00:15:49;;;;;;;21.05;9.50;;;;;;;13.14;61.16;100878.89;125025;1086;104410;-74
2023/05/05 00:18:18;;;;;;;21.30;9.77;;;;;;;13.08;61.07;100886.59;124966;1086;104440;-74
2023/05/05 00:20:47;;;;;;;22.70;9.93;;;;;;;13.03;60.85;100880.30;124957;1086;104359;-75
2023/05/05 00:23:17;;;;;;;23.17;10.17;;;;;;;13.00;60.96;100882.83;125013;1085;104369;-74
2023/05/05 00:25:45;;;;;;;20.90;10.10;;;;;;;12.95;60.85;100883.56;124966;1086;104231;-74
2023/05/05 00:28:14;;;;;;;23.83;10.07;;;;;;;12.93;61.32;100881.72;124650;1086;104386;-74
2023/05/05 00:30:42;;;;;;;18.90;9.67;;;;;;;12.90;61.38;100876.35;124637;1086;104417;-74
2023/05/05 00:33:11;;;;;;;22.80;10.17;;;;;;;12.88;61.36;100884.20;124926;1086;104267;-74
2023/05/05 00:35:40;;;;;;;20.07;9.77;;;;;;;12.90;62.01;100884.25;124882;1086;104213;-74
2023/05/05 00:38:09;;;;;;;24.63;10.03;;;;;;;12.90;61.56;100879.91;124961;1086;104297;-75
2023/05/05 00:40:37;;;;;;;20.27;9.10;;;;;;;12.88;61.37;100878.05;124895;1086;104296;-74
2023/05/05 00:43:07;;;;;;;21.37;9.37;;;;;;;12.86;61.39;100875.38;125068;1086;104373;-75
2023/05/05 00:45:36;;;;;;;20.00;8.93;;;;;;;12.84;61.85;100889.32;124990;1086;104431;-74
2023/05/05 00:48:06;;;;;;;18.10;8.90;;;;;;;12.85;61.82;100880.59;124887;1086;104290;-74
2023/05/05 00:50:35;;;;;;;17.77;8.77;;;;;;;12.85;62.46;100886.73;125224;1086;104234;-73
2023/05/05 00:53:05;;;;;;;19.47;8.93;;;;;;;12.86;62.41;100877.13;124999;1086;104280;-74
2023/05/05 00:55:35;;;;;;;19.25;8.50;;;;;;;12.87;62.36;100879.80;124937;1086;104391;-74
2023/05/05 00:58:04;;;;;;;22.47;9.33;;;;;;;12.88;62.09;100878.05;125074;1086;104334;-75
2023/05/05 01:00:33;;;;;;;17.30;8.67;;;;;;;12.84;62.17;100877.07;124895;1086;104241;-75
2023/05/05 01:03:01;;;;;;;18.03;8.53;;;;;;;12.82;62.31;100869.95;124902;1086;104254;-74
2023/05/05 01:05:41;;;;;;;20.27;9.10;;;;;;;12.78;62.58;100874.23;124921;1086;104289;-74
2023/05/05 01:08:28;;;;;;;19.25;8.85;;;;;;;12.72;63.17;100879.30;124887;1086;104347;-74
2023/05/05 01:11:03;;;;;;;19.83;8.50;;;;;;;12.63;62.90;100873.73;124925;1086;104426;-75
2023/05/05 01:13:52;;;;;;;18.83;8.37;;;;;;;12.56;63.53;100876.16;124860;1086;104337;-74
2023/05/05 01:16:24;;;;;;;23.70;8.80;;;;;;;12.48;63.75;100881.99;124905;1086;104676;-74
2023/05/05 01:18:57;;;;;;;18.73;9.13;;;;;;;12.41;64.45;100873.00;125025;1084;104222;-74
2023/05/05 01:21:31;;;;;;;22.10;9.63;;;;;;;12.32;64.21;100872.69;124981;1085;104324;-74
2023/05/05 01:24:06;;;;;;;;;;;;;;;12.25;63.96;100868.04;124721;1086;104653;-75
2023/05/05 01:26:59;;;;;;;23.23;11.13;;;;;;;12.21;64.41;100870.56;124624;1086;104765;-75
2023/05/05 01:29:53;;;;;;;21.93;11.80;;;;;;;12.14;63.75;100862.40;124915;1086;104315;-75
2023/05/05 01:32:26;;;;;;;25.27;11.80;;;;;;;12.08;64.24;100864.84;124853;1086;105586;-74
2023/05/05 01:35:00;;;;;;;23.85;10.65;;;;;;;12.09;64.55;100864.91;124845;1086;104638;-74
2023/05/05 01:37:35;;;;;;;23.50;10.83;;;;;;;12.13;64.41;100863.27;125133;1086;104257;-74
2023/05/05 01:40:09;;;;;;;23.10;10.40;;;;;;;12.16;64.31;100852.84;124900;1086;104334;-74
2023/05/05 01:42:40;;;;;;;;;;;;;;;12.15;64.18;100851.93;125040;1086;104370;-74
2023/05/05 01:45:11;;;;;;;18.37;8.87;;;;;;;12.16;64.16;100855.48;125486;1086;104344;-73
2023/05/05 01:47:44;;;;;;;19.80;9.80;;;;;;;12.17;64.56;100854.61;125110;1086;104334;-73
2023/05/05 01:50:14;;;;;;;20.77;9.53;;;;;;;12.18;64.42;100854.67;124975;1086;104350;-77
2023/05/05 01:52:44;;;;;;;19.47;9.60;;;;;;;12.17;64.78;100855.53;124942;1086;104340;-74
2023/05/05 01:55:17;;;;;;;19.30;9.17;;;;;;;12.14;64.96;100849.25;125015;1086;104424;-74
2023/05/05 01:57:48;;;;;;;19.47;8.43;;;;;;;12.04;64.98;100853.30;124952;1086;104276;-74
2023/05/05 02:00:19;;;;;;;17.20;8.85;;;;;;;11.96;65.31;100852.14;124783;1086;104344;-74
2023/05/05 02:02:50;;;;;;;20.77;9.10;;;;;;;11.86;65.72;100854.41;124734;1086;104289;-75
2023/05/05 02:05:21;;;;;;;19.23;9.03;;;;;;;11.77;66.08;100847.93;125108;1086;104375;-75
2023/05/05 02:07:52;;;;;;;21.57;9.33;;;;;;;11.67;66.05;100852.84;124756;1086;104299;-74
2023/05/05 02:10:21;;;;;;;20.77;9.17;;;;;;;11.63;66.19;100852.68;124808;1086;104345;-74
2023/05/05 02:12:51;;;;;;;19.23;9.83;;;;;;;11.60;66.69;100852.56;124844;1086;104286;-75
2023/05/05 02:15:23;;;;;;;17.73;9.23;;;;;;;11.54;66.34;100845.33;124911;1086;104238;-74
2023/05/05 02:17:52;;;;;;;19.53;9.43;;;;;;;11.50;66.96;100857.48;124702;1086;104337;-74
2023/05/05 02:20:23;;;;;;;21.07;9.90;;;;;;;11.43;67.26;100863.33;124930;1086;104238;-74
2023/05/05 02:22:53;;;;;;;20.00;8.80;;;;;;;11.37;68.14;100864.83;124883;1086;104347;-75
2023/05/05 02:25:22;;;;;;;20.23;9.37;;;;;;;11.28;68.22;100862.73;124660;1086;104707;-74
2023/05/05 02:27:55;;;;;;;20.67;9.30;;;;;;;11.21;68.64;100865.98;124673;1086;104350;-74
2023/05/05 02:30:26;;;;;;;19.70;9.13;;;;;;;11.10;67.71;100869.07;124842;1086;104360;-75
2023/05/05 02:32:59;;;;;;;17.43;8.57;;;;;;;11.05;68.40;100862.75;124608;1086;104315;-74
2023/05/05 02:35:34;;;;;;;20.57;9.23;;;;;;;11.01;68.06;100862.56;124877;1086;104228;-75
2023/05/05 02:38:05;;;;;;;20.83;8.67;;;;;;;11.00;68.46;100861.69;124980;1086;104290;-74
2023/05/05 02:40:41;;;;;;;21.00;9.77;;;;;;;10.98;68.22;100858.08;124889;1086;104206;-74
2023/05/05 02:43:14;;;;;;;17.53;8.73;;;;;;;10.99;68.33;100866.88;124709;1086;104238;-75
2023/05/05 02:45:42;;;;;;;19.07;9.30;;;;;;;10.95;68.19;100863.20;124907;1086;104212;-75
2023/05/05 02:48:12;;;;;;;19.20;9.23;;;;;;;10.92;69.32;100860.45;124881;1086;104316;-75
2023/05/05 02:50:40;;;;;;;20.03;9.13;;;;;;;10.86;68.53;100869.00;124828;1086;104360;-75
2023/05/05 02:53:27;;;;;;;21.57;9.00;;;;;;;10.81;68.88;100859.14;124911;1086;104347;-75
2023/05/05 02:56:15;;;;;;;21.77;9.57;;;;;;;10.78;69.07;100862.52;124661;1086;104618;-75
2023/05/05 02:58:53;;;;;;;17.65;8.60;;;;;;;10.75;70.26;100867.65;124928;1086;104219;-75
2023/05/05 03:01:35;;;;;;;20.53;8.93;;;;;;;10.73;70.18;100869.33;125067;1085;104296;-76
2023/05/05 03:04:11;;;;;;;22.70;9.23;;;;;;;10.74;69.60;100868.50;125103;1086;104414;-74
2023/05/05 03:06:49;;;;;;;19.33;9.03;;;;;;;10.74;70.47;100869.39;124778;1086;104335;-74
2023/05/05 03:09:27;;;;;;;17.57;8.73;;;;;;;10.75;71.04;100863.31;125029;1086;104340;-74
2023/05/05 03:12:02;;;;;;;20.20;8.90;;;;;;;10.78;70.01;100859.90;124931;1086;104305;-74
2023/05/05 03:14:36;;;;;;;20.40;8.60;;;;;;;10.79;70.35;100852.09;124854;1086;104342;-74
2023/05/05 03:17:05;;;;;;;;;;;;;;;10.81;70.93;100865.27;125421;1086;104296;-75
2023/05/05 03:19:38;;;;;;;17.13;8.00;;;;;;;10.82;70.69;100860.94;124989;1086;104222;-75
2023/05/05 03:22:07;;;;;;;18.97;9.00;;;;;;;10.79;70.87;100862.59;125104;1086;104241;-74
2023/05/05 03:24:37;;;;;;;19.03;8.57;;;;;;;10.81;70.60;100867.02;124845;1086;104315;-77
2023/05/05 03:27:08;;;;;;;19.60;8.50;;;;;;;10.81;70.61;100870.52;124768;1086;104304;-75
2023/05/05 03:29:39;;;;;;;18.40;8.67;;;;;;;10.81;70.76;100867.02;125038;1086;104402;-76
2023/05/05 03:32:11;;;;;;;16.43;7.70;;;;;;;10.80;70.84;100860.88;125095;1086;104231;-74
2023/05/05 03:34:39;;;;;;;17.60;8.40;;;;;;;10.81;71.02;100860.02;124735;1086;104427;-76
2023/05/05 03:37:08;;;;;;;19.20;8.57;;;;;;;10.83;71.90;100870.59;125136;1086;104244;-75
2023/05/05 03:39:37;;;;;;;20.03;8.93;;;;;;;10.83;71.23;100865.34;125212;1086;104653;-74
2023/05/05 03:42:06;;;;;;;17.53;8.63;;;;;;;10.84;71.24;100861.89;125084;1086;104391;-73
2023/05/05 03:44:36;;;;;;;16.07;7.60;;;;;;;10.85;71.05;100856.70;125058;1086;104258;-76
2023/05/05 03:47:05;;;;;;;18.67;8.57;;;;;;;10.91;71.13;100856.06;124963;1086;104354;-76
2023/05/05 03:49:34;;;;;;;17.03;8.10;;;;;;;10.98;71.07;100863.33;124821;1086;104379;-76
2023/05/05 03:52:04;;;;;;;17.17;7.97;;;;;;;11.03;71.11;100867.06;125136;1085;104674;-75
2023/05/05 03:54:33;;;;;;;19.97;8.50;;;;;;;11.08;71.38;100870.75;124779;1086;104405;-75
2023/05/05 03:57:01;;;;;;;15.50;7.27;;;;;;;11.13;71.70;100869.19;125136;1086;104197;-75
2023/05/05 03:59:30;;;;;;;19.43;8.67;;;;;;;11.17;72.39;100875.45;125007;1086;104414;-76
2023/05/05 04:01:58;;;;;;;19.07;7.40;;;;;;;11.20;71.97;100872.94;125064;1086;104613;-76
2023/05/05 04:04:27;;;;;;;18.25;8.35;;;;;;;11.26;71.51;100870.55;125015;1086;104233;-75
2023/05/05 04:06:56;;;;;;;21.83;8.63;;;;;;;11.34;71.30;100873.48;125247;1086;104331;-75
2023/05/05 04:09:24;;;;;;;21.50;9.47;;;;;;;11.39;71.95;100871.95;125208;1086;104232;-75
2023/05/05 04:11:54;;;;;;;18.17;7.77;;;;;;;11.49;71.72;100881.06;125255;1085;104306;-74
2023/05/05 04:14:22;;;;;;;19.05;8.55;;;;;;;11.57;71.55;100878.73;125142;1086;104270;-75
2023/05/05 04:16:52;;;;;;;18.83;8.77;;;;;;;11.62;72.42;100872.78;125156;1086;104284;-77
2023/05/05 04:19:20;;;;;;;17.90;8.73;;;;;;;11.65;71.72;100864.13;125179;1086;104385;-76
2023/05/05 04:21:50;;;;;;;19.13;8.23;;;;;;;11.74;71.82;100866.22;125062;1086;104362;-77
2023/05/05 04:24:23;;;;;;;19.73;7.90;;;;;;;11.79;71.87;100869.91;125214;1086;104206;-76
2023/05/05 04:26:52;;;;;;;18.70;8.90;;;;;;;11.85;71.97;100867.50;125160;1086;104305;-75
2023/05/05 04:29:21;;;;;;;20.87;8.40;;;;;;;11.87;72.20;100866.72;125104;1086;104383;-76
2023/05/05 04:31:50;;;;;;;19.53;9.07;;;;;;;11.95;72.29;100874.01;125052;1086;104315;-75
2023/05/05 04:34:22;;;;;;;20.90;9.10;;;;;;;12.00;72.47;100867.20;125092;1086;104357;-77
2023/05/05 04:36:51;;;;;;;19.90;9.10;;;;;;;12.04;72.15;100869.08;125472;1086;104360;-76
2023/05/05 04:39:20;;;;;;;18.10;9.07;;;;;;;12.11;72.46;100871.09;125247;1086;104418;-74
2023/05/05 04:41:49;;;;;;;21.30;8.63;;;;;;;12.18;72.09;100877.46;125602;1086;104292;-74
2023/05/05 04:44:18;;;;;;;20.97;8.90;;;;;;;12.25;72.24;100870.67;125511;1086;104226;-74
2023/05/05 04:46:47;;;;;;;19.57;9.00;;;;;;;12.35;72.00;100865.78;125744;1086;104220;-74
2023/05/05 04:49:17;;;;;;;18.80;9.50;;;;;;;12.45;72.43;100877.54;125345;1086;104290;-73
2023/05/05 04:51:46;;;;;;;18.63;8.73;;;;;;;12.52;72.27;100878.63;125230;1085;104212;-74
2023/05/05 04:54:15;;;;;;;20.03;8.90;;;;;;;12.55;71.96;100881.37;125554;1086;104152;-76
2023/05/05 04:56:49;;;;;;;19.57;9.00;;;;;;;12.53;72.28;100870.79;125387;1086;108128;-76
2023/05/05 04:59:17;;;;;;;19.30;9.08;;;;;;;12.66;72.72;100881.73;125668;1086;104207;-73
2023/05/05 05:01:46;;;;;;;19.93;8.73;;;;;;;12.72;72.66;100881.94;125331;1086;104340;-76
2023/05/05 05:04:17;;;;;;;19.87;9.60;;;;;;;12.79;72.79;100878.64;125711;1086;104625;-73
2023/05/05 05:06:46;;;;;;;20.83;9.60;;;;;;;12.89;72.47;100878.10;125842;1086;104216;-72
2023/05/05 05:09:14;;;;;;;24.03;9.80;;;;;;;12.99;72.01;100888.94;125780;1086;104245;-72
2023/05/05 05:11:43;;;;;;;21.17;9.10;;;;;;;13.08;72.88;100879.58;125847;1086;104289;-75
2023/05/05 05:14:12;;;;;;;22.93;9.67;;;;;;;13.17;72.47;100878.98;125779;1086;104207;-73
2023/05/05 05:16:40;;;;;;;21.90;8.80;;;;;;;13.27;72.33;100878.40;125829;1086;104287;-74
2023/05/05 05:19:09;;;;;;;35.70;10.73;;;;;;;13.41;73.25;100877.97;125732;1086;102452;-73
2023/05/05 05:21:38;;;;;;;23.23;9.07;;;;;;;13.51;72.64;100882.69;125708;1086;104219;-74
2023/05/05 05:24:07;;;;;;;21.17;10.00;;;;;;;13.62;72.65;100878.61;125757;1086;104264;-77
2023/05/05 05:26:38;;;;;;;18.90;8.70;;;;;;;13.74;72.19;100883.33;126090;1085;104421;-75
2023/05/05 05:29:11;;;;;;;18.97;8.93;;;;;;;13.79;72.29;100888.73;126005;1086;104150;-76
2023/05/05 05:31:39;;;;;;;18.53;9.10;;;;;;;13.87;72.08;100887.23;126293;1086;104432;-73
2023/05/05 05:34:09;;;;;;;21.77;9.43;;;;;;;13.93;73.11;100876.86;126457;1085;104231;-77
2023/05/05 05:36:38;;;;;;;20.77;9.37;;;;;;;14.00;72.54;100883.19;126179;1086;104222;-72
2023/05/05 05:39:08;;;;;;;16.93;8.67;;;;;;;14.07;72.72;100885.16;126097;1086;104242;-76
2023/05/05 05:41:39;;;;;;;23.03;9.27;;;;;;;14.15;72.00;100872.18;126346;1086;104299;-77
2023/05/05 05:44:08;;;;;;;18.80;9.10;;;;;;;14.24;71.53;100882.95;126424;1086;104299;-74
2023/05/05 05:46:37;;;;;;;21.50;8.53;;;;;;;14.36;71.54;100878.00;126059;1086;104350;-76
2023/05/05 05:49:06;;;;;;;20.37;9.13;;;;;;;14.46;71.32;100884.44;126656;1086;104206;-72
2023/05/05 05:51:35;;;;;;;20.93;9.30;;;;;;;14.54;72.17;100882.00;126387;1086;104284;-73
2023/05/05 05:54:04;;;;;;;24.33;9.33;;;;;;;14.63;71.28;100882.27;126436;1086;104178;-75
2023/05/05 05:56:36;;;;;;;23.87;9.43;;;;;;;14.71;72.21;100880.70;126507;1086;104229;-75
2023/05/05 05:59:06;;;;;;;19.13;8.57;;;;;;;14.80;71.59;100880.02;126315;1086;102590;-76
2023/05/05 06:01:39;;;;;;;19.33;9.10;;;;;;;14.91;71.14;100880.27;126829;1086;104184;-78
2023/05/05 06:04:08;;;;;;;17.90;8.67;;;;;;;15.02;70.95;100889.38;126646;1086;104226;-75
2023/05/05 06:06:40;;;;;;;20.47;9.33;;;;;;;15.08;70.69;100886.88;126583;1086;104230;-79
2023/05/05 06:09:09;;;;;;;18.20;9.03;;;;;;;15.13;70.83;100880.78;126689;1086;104229;-78
2023/05/05 06:11:47;;;;;;;21.33;10.00;;;;;;;15.30;71.35;100883.81;126690;1086;102176;-77
2023/05/05 06:14:18;;;;;;;16.97;8.70;;;;;;;15.38;71.31;100885.78;126749;1086;104343;-83
2023/05/05 06:16:51;;;;;;;21.57;9.23;;;;;;;15.51;70.54;100880.77;126488;1086;104225;-77
2023/05/05 06:19:27;;;;;;;18.80;8.33;;;;;;;15.62;70.45;100868.66;126671;1086;102248;-81
2023/05/05 06:21:57;;;;;;;22.03;9.03;;;;;;;15.73;70.45;100872.41;127047;1086;104175;-79
2023/05/05 06:24:26;;;;;;;18.63;9.17;;;;;;;15.83;69.95;100868.22;126695;1086;104232;-77
2023/05/05 06:26:58;;;;;;;24.63;9.07;;;;;;;15.94;69.58;100860.49;126901;1086;104238;-80
2023/05/05 06:29:28;;;;;;;18.80;8.50;;;;;;;16.02;68.98;100855.34;126771;1086;104168;-77
2023/05/05 06:31:56;;;;;;;22.07;9.07;;;;;;;16.11;69.67;100847.58;127034;1085;104638;-77
2023/05/05 06:34:25;;;;;;;20.33;9.37;;;;;;;16.23;69.00;100858.40;126632;1086;104181;-77
2023/05/05 06:36:54;;;;;;;19.30;8.73;;;;;;;16.37;68.93;100852.47;126748;1086;104056;-76
2023/05/05 06:39:23;;;;;;;21.50;8.87;;;;;;;16.49;68.56;100856.22;126789;1086;102170;-77
2023/05/05 06:41:54;;;;;;;18.17;8.43;;;;;;;16.59;68.45;100846.66;126754;1086;104229;-76
2023/05/05 06:44:22;;;;;;;17.97;9.33;;;;;;;16.74;68.99;100842.50;126648;1086;104152;-76
2023/05/05 06:46:52;;;;;;;18.43;8.67;;;;;;;16.91;68.10;100848.07;126509;1086;104206;-76
2023/05/05 06:49:23;;;;;;;17.67;8.50;;;;;;;17.06;68.26;100838.61;126690;1086;104221;-78
2023/05/05 06:51:52;;;;;;;17.80;8.87;;;;;;;17.27;67.69;100838.89;126628;1086;104149;-76
2023/05/05 06:54:20;;;;;;;18.50;8.00;;;;;;;17.47;67.31;100837.39;126682;1086;102127;-77
2023/05/05 06:56:50;;;;;;;16.40;7.63;;;;;;;17.59;66.55;100829.59;126428;1086;104264;-77
2023/05/05 06:59:20;;;;;;;14.40;7.70;;;;;;;17.70;66.43;100826.15;127049;1086;104286;-81
2023/05/05 07:01:50;;;;;;;13.90;6.50;;;;;;;17.82;65.90;100825.41;126482;1086;102191;-77
2023/05/05 07:04:20;;;;;;;13.70;6.60;;;;;;;17.99;65.80;100830.94;126890;1086;102436;-80
2023/05/05 07:07:02;;;;;;;17.20;7.43;;;;;;;18.04;64.90;100813.28;126472;1086;104220;-80
2023/05/05 07:09:33;;;;;;;16.02;7.67;;;;;;;18.20;64.51;100835.56;126533;1086;104344;-78
2023/05/05 07:12:06;;;;;;;14.77;7.33;;;;;;;18.40;62.62;100833.09;126230;1086;104305;-78
2023/05/05 07:14:35;;;;;;;16.70;5.77;;;;;;;18.60;63.24;100825.30;126384;1086;104215;-79
2023/05/05 07:17:08;;;;;;;15.00;6.67;;;;;;;18.72;63.28;100835.14;126511;1086;102443;-75
2023/05/05 07:19:56;;;;;;;12.60;6.60;;;;;;;18.83;62.09;100825.47;126426;1086;105352;-78
2023/05/05 07:22:50;;;;;;;;;;;;;;;;;;;;;
2023/05/05 07:25:21;;;;;;;12.80;5.93;;;;;;;19.37;60.17;100836.47;126451;1086;104379;-80
2023/05/05 07:28:37;;;;;;;12.80;5.75;;;;;;;19.59;57.59;100826.80;126899;1085;104168;-79
2023/05/05 07:31:18;;;;;;;12.77;6.10;;;;;;;19.82;56.60;100820.69;126504;1086;104245;-82
2023/05/05 07:34:15;;;;;;;10.17;5.17;;;;;;;19.92;57.13;100822.50;126763;1085;102334;-77
2023/05/05 07:36:56;;;;;;;;;;;;;;;;;;;;;
2023/05/05 07:39:27;;;;;;;15.43;5.07;;;;;;;20.07;54.63;100810.97;126405;1086;104190;-76
2023/05/05 07:41:56;;;;;;;10.43;4.70;;;;;;;20.09;55.80;100820.75;126076;1086;104417;-74
2023/05/05 07:44:25;;;;;;;11.60;5.30;;;;;;;20.16;54.57;100818.09;126617;1086;104228;-76
2023/05/05 07:46:53;;;;;;;9.43;4.87;;;;;;;20.31;54.63;100823.44;126708;1086;102302;-77
2023/05/05 07:49:22;;;;;;;9.70;4.80;;;;;;;20.37;53.40;100818.12;126699;1086;104226;-74
2023/05/05 07:52:05;;;;;;;12.27;4.73;;;;;;;20.51;52.41;100822.58;126873;1086;104216;-76
2023/05/05 07:54:34;;;;;;;10.43;4.62;;;;;;;20.65;52.26;100818.16;126512;1086;104166;-75
2023/05/05 07:57:05;;;;;;;10.13;4.07;;;;;;;20.65;50.12;100823.48;126640;1085;102498;-76
2023/05/05 07:59:34;;;;;;;15.80;4.70;;;;;;;20.69;52.07;100817.24;126645;1086;104260;-78
2023/05/05 08:02:03;;;;;;;9.60;4.90;;;;;;;20.61;50.03;100819.00;126798;1086;104159;-74
2023/05/05 08:04:32;;;;;;;9.50;4.53;;;;;;;20.68;51.64;100812.81;126697;1086;102696;-74
2023/05/05 08:07:01;;;;;;;11.23;4.40;;;;;;;20.63;46.21;100812.79;126728;1086;104319;-76
2023/05/05 08:09:30;;;;;;;8.57;3.97;;;;;;;20.55;47.44;100816.33;126722;1086;104162;-77
2023/05/05 08:12:01;;;;;;;9.47;4.37;;;;;;;20.49;48.36;100811.91;127044;1086;102460;-77
2023/05/05 08:14:34;;;;;;;8.83;4.10;;;;;;;20.57;49.42;100807.46;126816;1086;102301;-77
2023/05/05 08:17:08;;;;;;;7.63;3.93;;;;;;;20.70;49.53;100811.03;126645;1085;102376;-76
2023/05/05 08:19:37;;;;;;;7.87;4.07;;;;;;;20.79;49.43;100808.35;126596;1086;104373;-75
2023/05/05 08:22:08;;;;;;;11.67;4.13;;;;;;;20.82;48.08;100812.80;126730;1086;104289;-74
2023/05/05 08:24:37;;;;;;;9.00;3.87;;;;;;;20.76;47.07;100810.14;126827;1086;102620;-78
2023/05/05 08:27:05;;;;;;;8.50;3.77;;;;;;;20.77;47.21;100812.81;126871;1086;104190;-78
2023/05/05 08:29:35;;;;;;;6.47;3.53;;;;;;;20.85;45.43;100811.89;126725;1086;104168;-73
2023/05/05 08:32:03;;;;;;;8.13;3.63;;;;;;;20.87;44.96;100811.01;126568;1086;102208;-78
2023/05/05 08:34:32;;;;;;;8.97;4.30;;;;;;;20.94;45.72;100807.45;126773;1086;104714;-75
2023/05/05 08:37:00;;;;;;;9.30;4.23;;;;;;;20.98;45.54;100814.53;126813;1086;104283;-76
2023/05/05 08:39:31;;;;;;;12.07;4.00;;;;;;;20.94;46.33;100806.54;126900;1085;104130;-75
2023/05/05 08:42:01;;;;;;;7.80;3.90;;;;;;;20.99;46.44;100805.65;126587;1085;104231;-79
2023/05/05 08:44:33;;;;;;;9.60;4.10;;;;;;;21.02;44.60;100804.77;126676;1086;103330;-77
2023/05/05 08:47:02;;;;;;;8.27;3.97;;;;;;;21.18;45.38;100795.80;126395;1087;104232;-77
2023/05/05 08:49:40;;;;;;;6.97;4.27;;;;;;;21.36;43.77;100807.30;126586;1086;104235;-78
2023/05/05 08:52:10;;;;;;;7.10;3.77;;;;;;;21.47;44.30;100802.83;126820;1086;104152;-79
2023/05/05 08:54:49;;;;;;;8.13;4.10;;;;;;;21.53;43.75;100800.17;126882;1086;104271;-79
2023/05/05 08:57:36;;;;;;;9.00;4.47;;;;;;;21.47;43.80;100797.48;126652;1086;104242;-80
2023/05/05 09:00:09;;;;;;;11.27;4.03;;;;;;;21.34;43.10;100801.09;126880;1086;104296;-80
2023/05/05 09:02:38;;;;;;;6.50;3.43;;;;;;;21.28;41.87;100799.32;126411;1086;104219;-76
2023/05/05 09:05:08;;;;;;;9.13;3.80;;;;;;;21.36;42.95;100799.30;126717;1086;104235;-78
2023/05/05 09:07:37;;;;;;;7.07;3.77;;;;;;;21.35;42.20;100808.22;126605;1086;102706;-75
2023/05/05 09:10:15;;;;;;;8.90;3.97;;;;;;;21.43;43.50;100798.39;126523;1085;104203;-77
2023/05/05 09:12:45;;;;;;;9.63;3.80;;;;;;;21.38;42.64;100802.87;126530;1086;104142;-74
2023/05/05 09:15:15;;;;;;;8.90;3.87;;;;;;;21.30;41.66;100794.89;126646;1085;104376;-75
2023/05/05 09:17:43;;;;;;;8.90;3.90;;;;;;;21.32;42.72;100797.55;126523;1086;104293;-76
2023/05/05 09:20:14;;;;;;;8.17;3.90;;;;;;;21.46;41.56;100792.16;126737;1086;104142;-76
2023/05/05 09:22:44;;;;;;;6.90;3.70;;;;;;;21.64;42.95;100789.41;126761;1086;104022;-74
2023/05/05 09:25:14;;;;;;;7.43;3.87;;;;;;;21.76;42.23;100798.27;128397;1086;101682;-76
2023/05/05 09:27:45;;;;;;;8.03;3.60;;;;;;;21.85;41.53;100790.20;128427;1085;102316;-74
2023/05/05 09:30:15;;;;;;;9.20;3.60;;;;;;;21.86;40.59;100789.28;128421;1085;101346;-73
2023/05/05 09:32:49;;;;;;;7.67;3.67;;;;;;;21.82;40.48;100788.42;126890;1086;117822;-75
2023/05/05 09:35:19;;;;;;;5.60;3.73;;;;;;;21.69;40.41;100794.72;126732;1086;104444;-71
2023/05/05 09:37:48;;;;;;;7.13;3.80;;;;;;;21.62;40.05;100796.55;126836;1086;104202;-76
2023/05/05 09:40:18;;;;;;;5.30;3.50;;;;;;;21.69;40.20;100792.05;126823;1085;104232;-70
2023/05/05 09:42:47;;;;;;;7.67;3.83;;;;;;;21.78;40.21;100794.67;126767;1086;102291;-76
2023/05/05 09:45:31;;;;;;;8.30;3.77;;;;;;;21.92;40.80;100793.71;126995;1086;104181;-76
2023/05/05 09:47:59;;;;;;;;;;;;;;;22.05;40.32;100790.07;126837;1086;104184;-75
2023/05/05 09:50:29;;;;;;;6.00;3.43;;;;;;;21.99;39.10;100799.01;126543;1086;102834;-74
2023/05/05 09:53:00;;;;;;;9.30;3.93;;;;;;;21.83;39.57;100795.55;126909;1086;102529;-76
2023/05/05 09:55:30;;;;;;;8.67;3.93;;;;;;;21.76;39.99;100807.16;126723;1086;104156;-74
2023/05/05 09:58:18;;;;;;;7.90;4.00;;;;;;;21.69;39.82;100792.05;126565;1086;104233;-74
2023/05/05 10:00:51;;;;;;;10.27;4.57;;;;;;;21.65;40.09;100788.52;126672;1086;104161;-73
2023/05/05 10:03:20;;;;;;;6.93;3.47;;;;;;;21.75;40.51;100785.80;126733;1086;102161;-77
2023/05/05 10:05:52;;;;;;;9.00;3.93;;;;;;;21.80;39.58;100791.98;126896;1086;104241;-74
2023/05/05 10:08:23;;;;;;;9.07;4.00;;;;;;;21.84;40.19;100783.08;126696;1086;104485;-76
2023/05/05 10:10:55;;;;;;;5.87;3.87;;;;;;;21.75;38.58;100788.47;127003;1086;102625;-79
2023/05/05 10:13:24;;;;;;;6.90;3.53;;;;;;;21.67;39.11;100784.05;126988;1086;108187;-76
2023/05/05 10:15:55;;;;;;;7.13;3.80;;;;;;;21.65;39.39;100782.30;126958;1086;102330;-79
2023/05/05 10:18:25;;;;;;;9.87;3.90;;;;;;;21.60;38.40;100782.33;126497;1086;104343;-76
2023/05/05 10:20:57;;;;;;;6.27;3.70;;;;;;;21.72;38.89;100786.69;126945;1086;104133;-78
2023/05/05 10:23:35;;;;;;;9.77;3.83;;;;;;;21.87;39.18;100778.59;126847;1086;103028;-74
2023/05/05 10:26:06;;;;;;;7.57;4.03;;;;;;;22.02;39.20;100776.73;127066;1086;104085;-77
2023/05/05 10:28:41;;;;;;;8.57;4.30;;;;;;;22.05;38.70;100780.26;127059;1084;104232;-77
2023/05/05 10:31:16;;;;;;;7.20;4.57;;;;;;;21.95;38.48;100781.21;126864;1086;104135;-80
2023/05/05 10:33:54;;;;;;;7.53;3.90;;;;;;;21.83;37.75;100778.61;127058;1086;104181;-76
2023/05/05 10:36:26;;;;;;;10.03;4.17;;;;;;;21.75;37.51;100775.98;127140;1086;103959;-75
2023/05/05 10:38:59;;;;;;;6.07;3.90;;;;;;;21.73;37.53;100778.67;126850;1086;104385;-79
2023/05/05 10:41:33;;;;;;;7.30;4.27;;;;;;;21.72;37.63;100776.01;126474;1086;104149;-78
2023/05/05 10:44:02;;;;;;;9.63;4.50;;;;;;;21.76;37.72;100767.09;126781;1086;112099;-77
2023/05/05 10:46:30;;;;;;;8.70;4.30;;;;;;;21.93;37.98;100763.44;126637;1086;102302;-78
2023/05/05 10:49:08;;;;;;;7.10;4.47;;;;;;;22.04;37.91;100767.78;127039;1086;102631;-77
2023/05/05 10:51:49;;;;;;;9.20;4.40;;;;;;;22.27;38.15;100756.05;127108;1086;104159;-73
2023/05/05 10:54:29;;;;;;;9.85;4.50;;;;;;;22.32;38.19;100762.27;127396;1086;102454;-81
2023/05/05 10:57:01;;;;;;;8.17;4.47;;;;;;;22.29;37.42;100766.72;127016;1086;102666;-80
2023/05/05 10:59:46;;;;;;;9.17;4.20;;;;;;;22.30;37.54;100763.13;127221;1085;102600;-79
2023/05/05 11:02:23;;;;;;;9.93;4.30;;;;;;;22.26;37.60;100764.95;126996;1086;102564;-76
2023/05/05 11:05:21;;;;;;;7.73;4.10;;;;;;;22.23;37.61;100762.30;126847;1086;107962;-75
2023/05/05 11:08:26;;;;;;;7.10;4.43;;;;;;;22.19;37.58;100755.20;126801;1085;102466;-71
2023/05/05 11:10:55;;;;;;;9.17;4.20;;;;;;;22.28;36.71;100760.47;126944;1086;104334;-76
2023/05/05 11:13:29;;;;;;;8.50;3.93;;;;;;;22.40;37.38;100747.03;126951;1086;104608;-76
2023/05/05 11:16:01;;;;;;;9.40;3.80;;;;;;;22.55;36.59;100748.69;126574;1086;102745;-75
2023/05/05 11:18:37;;;;;;;9.40;4.43;;;;;;;22.61;36.07;100745.08;126662;1086;104161;-75
2023/05/05 11:21:20;;;;;;;9.93;4.00;;;;;;;22.65;36.07;100744.12;126784;1086;103377;-74
2023/05/05 11:24:36;;;;;;;;;;;;;;;;;;;;;
2023/05/05 11:27:12;;;;;;;7.60;3.90;;;;;;;22.84;35.83;100735.91;126756;1086;104206;-75
2023/05/05 11:30:06;;;;;;;10.05;3.67;;;;;;;22.89;34.75;100742.08;126914;1086;104228;-77
2023/05/05 11:32:39;;;;;;;4.60;3.30;;;;;;;23.03;35.14;100733.89;126884;1086;104194;-79